SCSU weather

Santa Lucía Airport
Freire, Araucanía Region, Chile

Public forecast

Using degrees Celsius for public forecast. Weather courtesy of forecast.io.

METAR (pilot weather report)

Closest report is La Araucanía Airport, 13.3 nm (24.7 km) W. Retrieved 2019/03/22 06:00 UTC (11 minutes ago):

SCQP 220600Z 00000KT 9999 OVC031 13/12 Q1020

TAF (pilot weather forecast)

Closest forecast is La Araucanía Airport, 13.3 nm (24.7 km) W. Retrieved 2019/03/22 06:00 UTC (11 minutes ago):

TAF SCQP 220420Z 2206/2306 VRB02KT 3000 BR OVC006 TN12/2210Z TX21/2219Z TEMPO 2206/2210 0800 BCFG OVC003 BECMG 2212/2214 23005KT 9999 NSW BKN015 BECMG 2215/2217 24010KT FEW030 BECMG 2221/2223 26005KT CAVOK